sensor_id;sensor_type;location;lat;lon;timestamp;temperature;humidity
45329;DHT22;72636;48.160;11.428;2024-03-07T00:00:21;4.80;99.90
45329;DHT22;72636;48.160;11.428;2024-03-07T00:02:49;4.80;99.90
45329;DHT22;72636;48.160;11.428;2024-03-07T00:05:21;4.70;99.90
45329;DHT22;72636;48.160;11.428;2024-03-07T00:07:50;4.70;99.90
45329;DHT22;72636;48.160;11.428;2024-03-07T00:10:15;4.70;99.90
45329;DHT22;72636;48.160;11.428;2024-03-07T00:12:42;4.70;99.90
45329;DHT22;72636;48.160;11.428;2024-03-07T00:15:09;4.70;99.90
45329;DHT22;72636;48.160;11.428;2024-03-07T00:17:39;4.70;99.90
45329;DHT22;72636;48.160;11.428;2024-03-07T00:20:05;4.60;99.90
45329;DHT22;72636;48.160;11.428;2024-03-07T00:22:35;4.60;99.90
45329;DHT22;72636;48.160;11.428;2024-03-07T00:25:01;4.60;99.90
45329;DHT22;72636;48.160;11.428;2024-03-07T00:27:27;4.60;99.90
45329;DHT22;72636;48.160;11.428;2024-03-07T00:29:53;4.60;99.90
45329;DHT22;72636;48.160;11.428;2024-03-07T00:32:22;4.60;99.90
45329;DHT22;72636;48.160;11.428;2024-03-07T00:34:49;4.60;99.90
45329;DHT22;72636;48.160;11.428;2024-03-07T00:37:15;4.60;99.90
45329;DHT22;72636;48.160;11.428;2024-03-07T00:39:42;4.50;99.90
45329;DHT22;72636;48.160;11.428;2024-03-07T00:42:08;4.50;99.90
45329;DHT22;72636;48.160;11.428;2024-03-07T00:44:34;4.50;99.90
45329;DHT22;72636;48.160;11.428;2024-03-07T00:47:00;4.50;99.90
45329;DHT22;72636;48.160;11.428;2024-03-07T00:49:27;4.40;99.90
45329;DHT22;72636;48.160;11.428;2024-03-07T00:51:54;4.40;99.90
45329;DHT22;72636;48.160;11.428;2024-03-07T00:54:20;4.40;99.90
45329;DHT22;72636;48.160;11.428;2024-03-07T00:56:45;4.40;99.90
45329;DHT22;72636;48.160;11.428;2024-03-07T00:59:15;4.50;99.90
45329;DHT22;72636;48.160;11.428;2024-03-07T01:01:41;4.50;99.90
45329;DHT22;72636;48.160;11.428;2024-03-07T01:04:07;4.50;99.90
45329;DHT22;72636;48.160;11.428;2024-03-07T01:06:33;4.50;99.90
45329;DHT22;72636;48.160;11.428;2024-03-07T01:08:59;4.50;99.90
45329;DHT22;72636;48.160;11.428;2024-03-07T01:11:25;4.50;99.90
45329;DHT22;72636;48.160;11.428;2024-03-07T01:13:51;4.50;99.90
45329;DHT22;72636;48.160;11.428;2024-03-07T01:16:17;4.50;99.90
45329;DHT22;72636;48.160;11.428;2024-03-07T01:18:43;4.50;99.90
45329;DHT22;72636;48.160;11.428;2024-03-07T01:21:08;4.50;99.90
45329;DHT22;72636;48.160;11.428;2024-03-07T01:23:34;4.50;99.90
45329;DHT22;72636;48.160;11.428;2024-03-07T01:26:00;4.50;99.90
45329;DHT22;72636;48.160;11.428;2024-03-07T01:28:27;4.50;99.90
45329;DHT22;72636;48.160;11.428;2024-03-07T01:30:59;4.50;99.90
45329;DHT22;72636;48.160;11.428;2024-03-07T01:33:24;4.50;99.90
45329;DHT22;72636;48.160;11.428;2024-03-07T01:35:50;4.50;99.90
45329;DHT22;72636;48.160;11.428;2024-03-07T01:38:16;4.50;99.90
45329;DHT22;72636;48.160;11.428;2024-03-07T01:40:45;4.60;99.90
45329;DHT22;72636;48.160;11.428;2024-03-07T01:43:11;4.60;99.90
45329;DHT22;72636;48.160;11.428;2024-03-07T01:45:37;4.60;99.90
45329;DHT22;72636;48.160;11.428;2024-03-07T01:48:04;4.60;99.90
45329;DHT22;72636;48.160;11.428;2024-03-07T01:50:30;4.60;99.90
45329;DHT22;72636;48.160;11.428;2024-03-07T01:52:55;4.60;99.90
45329;DHT22;72636;48.160;11.428;2024-03-07T01:55:22;4.70;99.90
45329;DHT22;72636;48.160;11.428;2024-03-07T01:57:49;4.60;99.90
45329;DHT22;72636;48.160;11.428;2024-03-07T02:00:15;4.60;99.90
45329;DHT22;72636;48.160;11.428;2024-03-07T02:02:44;4.60;99.90
45329;DHT22;72636;48.160;11.428;2024-03-07T02:05:10;4.60;99.90
45329;DHT22;72636;48.160;11.428;2024-03-07T02:07:36;4.60;99.90
45329;DHT22;72636;48.160;11.428;2024-03-07T02:10:03;4.60;99.90
45329;DHT22;72636;48.160;11.428;2024-03-07T02:12:32;4.60;99.90
45329;DHT22;72636;48.160;11.428;2024-03-07T02:14:58;4.60;99.90
45329;DHT22;72636;48.160;11.428;2024-03-07T02:17:25;4.70;99.90
45329;DHT22;72636;48.160;11.428;2024-03-07T02:19:51;4.70;99.90
45329;DHT22;72636;48.160;11.428;2024-03-07T02:22:17;4.70;99.90
45329;DHT22;72636;48.160;11.428;2024-03-07T02:24:43;4.70;99.90
45329;DHT22;72636;48.160;11.428;2024-03-07T02:27:10;4.70;99.90
45329;DHT22;72636;48.160;11.428;2024-03-07T02:29:36;4.70;99.90
45329;DHT22;72636;48.160;11.428;2024-03-07T02:32:02;4.70;99.90
45329;DHT22;72636;48.160;11.428;2024-03-07T02:34:28;4.70;99.90
45329;DHT22;72636;48.160;11.428;2024-03-07T02:36:54;4.80;99.90
45329;DHT22;72636;48.160;11.428;2024-03-07T02:39:20;4.80;99.90
45329;DHT22;72636;48.160;11.428;2024-03-07T02:41:50;4.80;99.90
45329;DHT22;72636;48.160;11.428;2024-03-07T02:44:16;4.80;99.90
45329;DHT22;72636;48.160;11.428;2024-03-07T02:46:42;4.80;99.90
45329;DHT22;72636;48.160;11.428;2024-03-07T02:49:08;4.90;99.90
45329;DHT22;72636;48.160;11.428;2024-03-07T02:51:34;4.90;99.90
45329;DHT22;72636;48.160;11.428;2024-03-07T02:54:01;4.90;99.90
45329;DHT22;72636;48.160;11.428;2024-03-07T02:56:28;4.90;99.90
45329;DHT22;72636;48.160;11.428;2024-03-07T02:58:54;4.90;99.90
45329;DHT22;72636;48.160;11.428;2024-03-07T03:01:19;4.90;99.90
45329;DHT22;72636;48.160;11.428;2024-03-07T03:03:45;4.90;99.90
45329;DHT22;72636;48.160;11.428;2024-03-07T03:06:11;4.90;99.90
45329;DHT22;72636;48.160;11.428;2024-03-07T03:08:37;4.90;99.90
45329;DHT22;72636;48.160;11.428;2024-03-07T03:11:03;4.90;99.90
45329;DHT22;72636;48.160;11.428;2024-03-07T03:13:29;4.90;99.90
45329;DHT22;72636;48.160;11.428;2024-03-07T03:15:55;4.90;99.90
45329;DHT22;72636;48.160;11.428;2024-03-07T03:18:24;4.90;99.90
45329;DHT22;72636;48.160;11.428;2024-03-07T03:20:50;4.90;99.90
45329;DHT22;72636;48.160;11.428;2024-03-07T03:23:16;4.90;99.90
45329;DHT22;72636;48.160;11.428;2024-03-07T03:25:42;4.90;99.90
45329;DHT22;72636;48.160;11.428;2024-03-07T03:28:09;4.90;99.90
45329;DHT22;72636;48.160;11.428;2024-03-07T03:30:38;5.00;99.90
45329;DHT22;72636;48.160;11.428;2024-03-07T03:33:05;5.00;99.90
45329;DHT22;72636;48.160;11.428;2024-03-07T03:35:31;4.90;99.90
45329;DHT22;72636;48.160;11.428;2024-03-07T03:37:57;5.00;99.90
45329;DHT22;72636;48.160;11.428;2024-03-07T03:40:23;5.00;99.90
45329;DHT22;72636;48.160;11.428;2024-03-07T03:42:49;4.90;99.90
45329;DHT22;72636;48.160;11.428;2024-03-07T03:45:15;4.90;99.90
45329;DHT22;72636;48.160;11.428;2024-03-07T03:47:41;4.90;99.90
45329;DHT22;72636;48.160;11.428;2024-03-07T03:50:09;4.90;99.90
45329;DHT22;72636;48.160;11.428;2024-03-07T03:52:35;4.90;99.90
45329;DHT22;72636;48.160;11.428;2024-03-07T03:55:02;4.90;99.90
45329;DHT22;72636;48.160;11.428;2024-03-07T03:57:28;4.90;99.90
45329;DHT22;72636;48.160;11.428;2024-03-07T03:59:55;4.90;99.90
45329;DHT22;72636;48.160;11.428;2024-03-07T04:02:22;4.90;99.90
45329;DHT22;72636;48.160;11.428;2024-03-07T04:04:52;4.90;99.90
45329;DHT22;72636;48.160;11.428;2024-03-07T04:07:20;4.90;99.90
45329;DHT22;72636;48.160;11.428;2024-03-07T04:09:46;4.90;99.90
45329;DHT22;72636;48.160;11.428;2024-03-07T04:12:13;4.90;99.90
45329;DHT22;72636;48.160;11.428;2024-03-07T04:14:42;4.90;99.90
45329;DHT22;72636;48.160;11.428;2024-03-07T04:17:09;4.90;99.90
45329;DHT22;72636;48.160;11.428;2024-03-07T04:19:40;4.90;99.90
45329;DHT22;72636;48.160;11.428;2024-03-07T04:22:07;4.90;99.90
45329;DHT22;72636;48.160;11.428;2024-03-07T04:24:34;4.80;99.90
45329;DHT22;72636;48.160;11.428;2024-03-07T04:27:01;4.80;99.90
45329;DHT22;72636;48.160;11.428;2024-03-07T04:29:27;4.80;99.90
45329;DHT22;72636;48.160;11.428;2024-03-07T04:31:53;4.80;99.90
45329;DHT22;72636;48.160;11.428;2024-03-07T04:34:18;4.80;99.90
45329;DHT22;72636;48.160;11.428;2024-03-07T04:36:44;4.80;99.90
45329;DHT22;72636;48.160;11.428;2024-03-07T04:39:10;4.70;99.90
45329;DHT22;72636;48.160;11.428;2024-03-07T04:41:51;4.70;99.90
45329;DHT22;72636;48.160;11.428;2024-03-07T04:44:18;4.70;99.90
45329;DHT22;72636;48.160;11.428;2024-03-07T04:46:48;4.70;99.90
45329;DHT22;72636;48.160;11.428;2024-03-07T04:49:15;4.70;99.90
45329;DHT22;72636;48.160;11.428;2024-03-07T04:51:40;4.60;99.90
45329;DHT22;72636;48.160;11.428;2024-03-07T04:54:06;4.60;99.90
45329;DHT22;72636;48.160;11.428;2024-03-07T04:56:32;4.60;99.90
45329;DHT22;72636;48.160;11.428;2024-03-07T04:58:57;4.60;99.90
45329;DHT22;72636;48.160;11.428;2024-03-07T05:01:23;4.60;99.90
45329;DHT22;72636;48.160;11.428;2024-03-07T05:03:50;4.60;99.90
45329;DHT22;72636;48.160;11.428;2024-03-07T05:06:18;4.50;99.90
45329;DHT22;72636;48.160;11.428;2024-03-07T05:08:44;4.50;99.90
45329;DHT22;72636;48.160;11.428;2024-03-07T05:11:09;4.50;99.90
45329;DHT22;72636;48.160;11.428;2024-03-07T05:13:35;4.50;99.90
45329;DHT22;72636;48.160;11.428;2024-03-07T05:16:02;4.40;99.90
45329;DHT22;72636;48.160;11.428;2024-03-07T05:18:28;4.40;99.90
45329;DHT22;72636;48.160;11.428;2024-03-07T05:20:53;4.40;99.90
45329;DHT22;72636;48.160;11.428;2024-03-07T05:23:20;4.40;99.90
45329;DHT22;72636;48.160;11.428;2024-03-07T05:25:46;4.30;99.90
45329;DHT22;72636;48.160;11.428;2024-03-07T05:28:11;4.30;99.90
45329;DHT22;72636;48.160;11.428;2024-03-07T05:30:37;4.30;99.90
45329;DHT22;72636;48.160;11.428;2024-03-07T05:33:03;4.30;99.90
45329;DHT22;72636;48.160;11.428;2024-03-07T05:35:29;4.30;99.90
45329;DHT22;72636;48.160;11.428;2024-03-07T05:37:55;4.20;99.90
45329;DHT22;72636;48.160;11.428;2024-03-07T05:40:22;4.20;99.90
45329;DHT22;72636;48.160;11.428;2024-03-07T05:42:48;4.20;99.90
45329;DHT22;72636;48.160;11.428;2024-03-07T05:45:14;4.20;99.90
45329;DHT22;72636;48.160;11.428;2024-03-07T05:47:40;4.20;99.90
45329;DHT22;72636;48.160;11.428;2024-03-07T05:50:08;4.20;99.90
45329;DHT22;72636;48.160;11.428;2024-03-07T05:52:33;4.20;99.90
45329;DHT22;72636;48.160;11.428;2024-03-07T05:54:59;4.20;99.90
45329;DHT22;72636;48.160;11.428;2024-03-07T05:57:24;4.20;99.90
45329;DHT22;72636;48.160;11.428;2024-03-07T05:59:50;4.20;99.90
45329;DHT22;72636;48.160;11.428;2024-03-07T06:02:16;4.20;99.90
45329;DHT22;72636;48.160;11.428;2024-03-07T06:04:43;4.20;99.90
45329;DHT22;72636;48.160;11.428;2024-03-07T06:07:08;4.20;99.90
45329;DHT22;72636;48.160;11.428;2024-03-07T06:09:36;4.20;99.90
45329;DHT22;72636;48.160;11.428;2024-03-07T06:12:02;4.20;99.90
45329;DHT22;72636;48.160;11.428;2024-03-07T06:14:29;4.20;99.90
45329;DHT22;72636;48.160;11.428;2024-03-07T06:16:55;4.20;99.90
45329;DHT22;72636;48.160;11.428;2024-03-07T06:19:23;4.20;99.90
45329;DHT22;72636;48.160;11.428;2024-03-07T06:21:49;4.20;99.90
45329;DHT22;72636;48.160;11.428;2024-03-07T06:24:15;4.20;99.90
45329;DHT22;72636;48.160;11.428;2024-03-07T06:26:43;4.20;99.90
45329;DHT22;72636;48.160;11.428;2024-03-07T06:29:29;4.20;99.90
45329;DHT22;72636;48.160;11.428;2024-03-07T06:31:55;4.20;99.90
45329;DHT22;72636;48.160;11.428;2024-03-07T06:34:20;4.20;99.90
45329;DHT22;72636;48.160;11.428;2024-03-07T06:36:46;4.30;99.90
45329;DHT22;72636;48.160;11.428;2024-03-07T06:39:12;4.30;99.90
45329;DHT22;72636;48.160;11.428;2024-03-07T06:41:38;4.30;99.90
45329;DHT22;72636;48.160;11.428;2024-03-07T06:44:04;4.30;99.90
45329;DHT22;72636;48.160;11.428;2024-03-07T06:46:31;4.30;99.90
45329;DHT22;72636;48.160;11.428;2024-03-07T06:48:57;4.30;99.90
45329;DHT22;72636;48.160;11.428;2024-03-07T06:51:23;4.40;99.90
45329;DHT22;72636;48.160;11.428;2024-03-07T06:53:50;4.40;99.90
45329;DHT22;72636;48.160;11.428;2024-03-07T06:56:16;4.40;99.90
45329;DHT22;72636;48.160;11.428;2024-03-07T06:58:42;4.40;99.90
45329;DHT22;72636;48.160;11.428;2024-03-07T07:01:09;4.40;99.90
45329;DHT22;72636;48.160;11.428;2024-03-07T07:03:37;4.40;99.90
45329;DHT22;72636;48.160;11.428;2024-03-07T07:06:03;4.40;99.90
45329;DHT22;72636;48.160;11.428;2024-03-07T07:08:32;4.40;99.90
45329;DHT22;72636;48.160;11.428;2024-03-07T07:10:58;4.40;99.90
45329;DHT22;72636;48.160;11.428;2024-03-07T07:13:23;4.50;99.90
45329;DHT22;72636;48.160;11.428;2024-03-07T07:15:49;4.50;99.90
45329;DHT22;72636;48.160;11.428;2024-03-07T07:18:15;4.60;99.90
45329;DHT22;72636;48.160;11.428;2024-03-07T07:20:41;4.60;99.90
45329;DHT22;72636;48.160;11.428;2024-03-07T07:23:07;4.60;99.90
45329;DHT22;72636;48.160;11.428;2024-03-07T07:25:33;4.60;99.90
45329;DHT22;72636;48.160;11.428;2024-03-07T07:27:59;4.70;99.90
45329;DHT22;72636;48.160;11.428;2024-03-07T07:30:25;4.70;99.90
45329;DHT22;72636;48.160;11.428;2024-03-07T07:32:53;4.80;99.90
45329;DHT22;72636;48.160;11.428;2024-03-07T07:35:22;4.80;99.90
45329;DHT22;72636;48.160;11.428;2024-03-07T07:37:50;4.80;99.90
45329;DHT22;72636;48.160;11.428;2024-03-07T07:40:21;4.80;99.90
45329;DHT22;72636;48.160;11.428;2024-03-07T07:42:52;4.90;99.90
45329;DHT22;72636;48.160;11.428;2024-03-07T07:45:19;4.90;99.90
45329;DHT22;72636;48.160;11.428;2024-03-07T07:47:47;5.00;99.90
45329;DHT22;72636;48.160;11.428;2024-03-07T07:50:16;5.00;99.90
45329;DHT22;72636;48.160;11.428;2024-03-07T07:52:49;5.00;99.90
45329;DHT22;72636;48.160;11.428;2024-03-07T07:55:23;5.00;99.90
45329;DHT22;72636;48.160;11.428;2024-03-07T07:57:51;5.10;99.90
45329;DHT22;72636;48.160;11.428;2024-03-07T08:00:21;5.10;99.90
45329;DHT22;72636;48.160;11.428;2024-03-07T08:03:04;5.10;99.90
45329;DHT22;72636;48.160;11.428;2024-03-07T08:05:33;5.10;99.90
45329;DHT22;72636;48.160;11.428;2024-03-07T08:08:08;5.10;99.90
45329;DHT22;72636;48.160;11.428;2024-03-07T08:10:37;5.10;99.90
45329;DHT22;72636;48.160;11.428;2024-03-07T08:13:04;5.20;99.90
45329;DHT22;72636;48.160;11.428;2024-03-07T08:15:34;5.20;99.90
45329;DHT22;72636;48.160;11.428;2024-03-07T08:18:00;5.20;99.90
45329;DHT22;72636;48.160;11.428;2024-03-07T08:20:26;5.20;99.90
45329;DHT22;72636;48.160;11.428;2024-03-07T08:22:53;5.20;99.90
45329;DHT22;72636;48.160;11.428;2024-03-07T08:25:22;5.20;99.90
45329;DHT22;72636;48.160;11.428;2024-03-07T08:27:52;5.20;99.90
45329;DHT22;72636;48.160;11.428;2024-03-07T08:30:19;5.20;99.90
45329;DHT22;72636;48.160;11.428;2024-03-07T08:32:52;5.20;99.90
45329;DHT22;72636;48.160;11.428;2024-03-07T08:35:18;5.30;99.90
45329;DHT22;72636;48.160;11.428;2024-03-07T08:37:45;5.30;99.90
45329;DHT22;72636;48.160;11.428;2024-03-07T08:40:12;5.30;99.90
45329;DHT22;72636;48.160;11.428;2024-03-07T08:42:50;5.40;99.90
45329;DHT22;72636;48.160;11.428;2024-03-07T08:45:17;5.40;99.90
45329;DHT22;72636;48.160;11.428;2024-03-07T08:47:54;5.40;99.90
45329;DHT22;72636;48.160;11.428;2024-03-07T08:50:20;5.40;99.90
45329;DHT22;72636;48.160;11.428;2024-03-07T08:52:47;5.50;99.90
45329;DHT22;72636;48.160;11.428;2024-03-07T08:55:18;5.50;99.90
45329;DHT22;72636;48.160;11.428;2024-03-07T08:57:45;5.60;99.90
45329;DHT22;72636;48.160;11.428;2024-03-07T09:00:12;5.60;99.90
45329;DHT22;72636;48.160;11.428;2024-03-07T09:02:48;5.70;99.90
45329;DHT22;72636;48.160;11.428;2024-03-07T09:05:17;5.80;99.90
45329;DHT22;72636;48.160;11.428;2024-03-07T09:07:43;5.80;99.90
45329;DHT22;72636;48.160;11.428;2024-03-07T09:10:10;5.80;99.90
45329;DHT22;72636;48.160;11.428;2024-03-07T09:12:36;5.90;99.90
45329;DHT22;72636;48.160;11.428;2024-03-07T09:15:05;5.90;99.90
45329;DHT22;72636;48.160;11.428;2024-03-07T09:17:31;5.90;99.90
45329;DHT22;72636;48.160;11.428;2024-03-07T09:19:57;6.00;99.90
45329;DHT22;72636;48.160;11.428;2024-03-07T09:22:23;6.10;99.90
45329;DHT22;72636;48.160;11.428;2024-03-07T09:24:48;6.10;99.90
45329;DHT22;72636;48.160;11.428;2024-03-07T09:27:14;6.20;99.90
45329;DHT22;72636;48.160;11.428;2024-03-07T09:29:41;6.20;99.90
45329;DHT22;72636;48.160;11.428;2024-03-07T09:32:07;6.20;99.90
45329;DHT22;72636;48.160;11.428;2024-03-07T09:34:35;6.30;99.90
45329;DHT22;72636;48.160;11.428;2024-03-07T09:37:02;6.30;99.90
45329;DHT22;72636;48.160;11.428;2024-03-07T09:39:27;6.30;99.90
45329;DHT22;72636;48.160;11.428;2024-03-07T09:41:53;6.30;99.90
45329;DHT22;72636;48.160;11.428;2024-03-07T09:44:21;6.40;99.90
45329;DHT22;72636;48.160;11.428;2024-03-07T09:46:50;6.30;99.90
45329;DHT22;72636;48.160;11.428;2024-03-07T09:49:17;6.30;99.90
45329;DHT22;72636;48.160;11.428;2024-03-07T09:51:44;6.30;99.90
45329;DHT22;72636;48.160;11.428;2024-03-07T09:54:10;6.30;99.90
45329;DHT22;72636;48.160;11.428;2024-03-07T09:56:36;6.40;99.90
45329;DHT22;72636;48.160;11.428;2024-03-07T09:59:04;6.50;99.90
45329;DHT22;72636;48.160;11.428;2024-03-07T10:01:33;6.50;99.90
45329;DHT22;72636;48.160;11.428;2024-03-07T10:04:01;6.60;99.90
45329;DHT22;72636;48.160;11.428;2024-03-07T10:06:36;6.70;99.90
45329;DHT22;72636;48.160;11.428;2024-03-07T10:09:02;6.80;99.90
45329;DHT22;72636;48.160;11.428;2024-03-07T10:11:29;7.00;99.90
45329;DHT22;72636;48.160;11.428;2024-03-07T10:13:55;7.10;99.90
45329;DHT22;72636;48.160;11.428;2024-03-07T10:16:21;7.30;99.90
45329;DHT22;72636;48.160;11.428;2024-03-07T10:18:46;7.40;99.90
45329;DHT22;72636;48.160;11.428;2024-03-07T10:21:21;7.50;99.90
45329;DHT22;72636;48.160;11.428;2024-03-07T10:23:49;7.60;99.90
45329;DHT22;72636;48.160;11.428;2024-03-07T10:26:17;7.80;99.90
45329;DHT22;72636;48.160;11.428;2024-03-07T10:28:43;7.90;99.90
45329;DHT22;72636;48.160;11.428;2024-03-07T10:31:09;8.10;99.90
45329;DHT22;72636;48.160;11.428;2024-03-07T10:33:40;8.10;99.90
45329;DHT22;72636;48.160;11.428;2024-03-07T10:36:06;8.30;99.90
45329;DHT22;72636;48.160;11.428;2024-03-07T10:38:39;8.40;99.90
45329;DHT22;72636;48.160;11.428;2024-03-07T10:41:06;8.60;99.90
45329;DHT22;72636;48.160;11.428;2024-03-07T10:43:36;8.70;99.90
45329;DHT22;72636;48.160;11.428;2024-03-07T10:46:05;8.80;99.90
45329;DHT22;72636;48.160;11.428;2024-03-07T10:48:36;8.90;99.90
45329;DHT22;72636;48.160;11.428;2024-03-07T10:51:14;8.90;99.90
45329;DHT22;72636;48.160;11.428;2024-03-07T10:54:12;8.90;99.90
45329;DHT22;72636;48.160;11.428;2024-03-07T10:57:17;8.80;99.90
45329;DHT22;72636;48.160;11.428;2024-03-07T10:59:56;8.90;99.90
45329;DHT22;72636;48.160;11.428;2024-03-07T11:04:50;8.60;99.90
45329;DHT22;72636;48.160;11.428;2024-03-07T11:07:21;8.60;99.90
45329;DHT22;72636;48.160;11.428;2024-03-07T11:09:57;8.60;99.90
45329;DHT22;72636;48.160;11.428;2024-03-07T11:12:24;8.60;99.90
45329;DHT22;72636;48.160;11.428;2024-03-07T11:14:53;8.50;99.90
45329;DHT22;72636;48.160;11.428;2024-03-07T11:17:21;8.60;99.90
45329;DHT22;72636;48.160;11.428;2024-03-07T11:19:47;9.00;99.90
45329;DHT22;72636;48.160;11.428;2024-03-07T11:22:31;9.50;99.90
45329;DHT22;72636;48.160;11.428;2024-03-07T11:25:21;9.90;99.90
45329;DHT22;72636;48.160;11.428;2024-03-07T11:28:06;9.90;99.90
45329;DHT22;72636;48.160;11.428;2024-03-07T11:30:31;10.00;99.90
45329;DHT22;72636;48.160;11.428;2024-03-07T11:32:57;10.00;99.90
45329;DHT22;72636;48.160;11.428;2024-03-07T11:35:33;9.90;99.90
45329;DHT22;72636;48.160;11.428;2024-03-07T11:38:02;9.90;99.90
45329;DHT22;72636;48.160;11.428;2024-03-07T11:42:57;9.70;99.90
45329;DHT22;72636;48.160;11.428;2024-03-07T11:45:26;9.70;99.90
45329;DHT22;72636;48.160;11.428;2024-03-07T11:47:54;9.50;99.90
45329;DHT22;72636;48.160;11.428;2024-03-07T11:50:28;9.40;99.90
45329;DHT22;72636;48.160;11.428;2024-03-07T11:52:54;9.30;99.90
45329;DHT22;72636;48.160;11.428;2024-03-07T11:55:23;9.30;99.90
45329;DHT22;72636;48.160;11.428;2024-03-07T11:57:50;9.20;99.90
45329;DHT22;72636;48.160;11.428;2024-03-07T12:00:19;9.40;99.90
45329;DHT22;72636;48.160;11.428;2024-03-07T12:02:46;9.70;99.90
45329;DHT22;72636;48.160;11.428;2024-03-07T12:05:14;10.60;99.90
45329;DHT22;72636;48.160;11.428;2024-03-07T12:07:45;11.20;99.90
45329;DHT22;72636;48.160;11.428;2024-03-07T12:10:10;11.60;99.90
45329;DHT22;72636;48.160;11.428;2024-03-07T12:12:36;11.70;99.90
45329;DHT22;72636;48.160;11.428;2024-03-07T12:15:07;12.00;99.90
45329;DHT22;72636;48.160;11.428;2024-03-07T12:17:46;12.20;99.90
45329;DHT22;72636;48.160;11.428;2024-03-07T12:20:18;12.20;99.90
45329;DHT22;72636;48.160;11.428;2024-03-07T12:22:59;12.20;99.90
45329;DHT22;72636;48.160;11.428;2024-03-07T12:25:31;12.20;99.90
45329;DHT22;72636;48.160;11.428;2024-03-07T12:30:32;12.30;99.90
45329;DHT22;72636;48.160;11.428;2024-03-07T12:32:59;12.50;99.90
45329;DHT22;72636;48.160;11.428;2024-03-07T12:35:25;12.40;99.90
45329;DHT22;72636;48.160;11.428;2024-03-07T12:37:52;12.30;99.90
45329;DHT22;72636;48.160;11.428;2024-03-07T12:40:20;12.10;99.90
45329;DHT22;72636;48.160;11.428;2024-03-07T12:42:52;11.90;99.90
45329;DHT22;72636;48.160;11.428;2024-03-07T12:45:20;11.70;99.90
45329;DHT22;72636;48.160;11.428;2024-03-07T12:47:53;11.50;99.90
45329;DHT22;72636;48.160;11.428;2024-03-07T12:50:20;11.30;99.90
45329;DHT22;72636;48.160;11.428;2024-03-07T12:52:47;11.10;99.90
45329;DHT22;72636;48.160;11.428;2024-03-07T12:55:16;10.90;99.90
45329;DHT22;72636;48.160;11.428;2024-03-07T12:57:47;10.80;99.90
45329;DHT22;72636;48.160;11.428;2024-03-07T13:00:18;10.70;99.90
45329;DHT22;72636;48.160;11.428;2024-03-07T13:02:49;10.60;99.90
45329;DHT22;72636;48.160;11.428;2024-03-07T13:05:15;10.60;99.90
45329;DHT22;72636;48.160;11.428;2024-03-07T13:07:48;10.60;99.90
45329;DHT22;72636;48.160;11.428;2024-03-07T13:10:15;10.40;99.90
45329;DHT22;72636;48.160;11.428;2024-03-07T13:12:44;10.30;99.90
45329;DHT22;72636;48.160;11.428;2024-03-07T13:15:16;10.10;99.90
45329;DHT22;72636;48.160;11.428;2024-03-07T13:17:43;10.10;99.90
45329;DHT22;72636;48.160;11.428;2024-03-07T13:20:12;10.00;99.90
45329;DHT22;72636;48.160;11.428;2024-03-07T13:22:44;10.00;99.90
45329;DHT22;72636;48.160;11.428;2024-03-07T13:25:23;9.90;99.90
45329;DHT22;72636;48.160;11.428;2024-03-07T13:30:42;9.90;99.90
45329;DHT22;72636;48.160;11.428;2024-03-07T13:33:09;9.90;99.90
45329;DHT22;72636;48.160;11.428;2024-03-07T13:35:39;9.90;99.90
45329;DHT22;72636;48.160;11.428;2024-03-07T13:38:06;9.90;99.90
45329;DHT22;72636;48.160;11.428;2024-03-07T13:40:32;9.80;99.90
45329;DHT22;72636;48.160;11.428;2024-03-07T13:43:00;9.80;99.90
45329;DHT22;72636;48.160;11.428;2024-03-07T13:45:30;9.80;99.90
45329;DHT22;72636;48.160;11.428;2024-03-07T13:47:58;9.80;99.90
45329;DHT22;72636;48.160;11.428;2024-03-07T13:50:28;9.70;99.90
45329;DHT22;72636;48.160;11.428;2024-03-07T13:52:55;9.60;99.90
45329;DHT22;72636;48.160;11.428;2024-03-07T14:29:59;9.20;99.90
45329;DHT22;72636;48.160;11.428;2024-03-07T14:32:36;9.10;99.90
45329;DHT22;72636;48.160;11.428;2024-03-07T14:35:28;9.10;99.90
45329;DHT22;72636;48.160;11.428;2024-03-07T14:38:23;9.10;99.90
45329;DHT22;72636;48.160;11.428;2024-03-07T14:40:51;9.00;99.90
45329;DHT22;72636;48.160;11.428;2024-03-07T14:43:18;9.00;99.90
45329;DHT22;72636;48.160;11.428;2024-03-07T14:45:45;9.00;99.90
45329;DHT22;72636;48.160;11.428;2024-03-07T14:48:12;8.90;99.90
45329;DHT22;72636;48.160;11.428;2024-03-07T14:50:41;8.90;99.90
45329;DHT22;72636;48.160;11.428;2024-03-07T14:53:08;8.70;99.90
45329;DHT22;72636;48.160;11.428;2024-03-07T14:55:35;8.60;99.90
45329;DHT22;72636;48.160;11.428;2024-03-07T14:58:02;8.50;99.90
45329;DHT22;72636;48.160;11.428;2024-03-07T15:00:28;8.50;99.90
45329;DHT22;72636;48.160;11.428;2024-03-07T15:02:55;8.40;99.90
45329;DHT22;72636;48.160;11.428;2024-03-07T15:05:25;8.40;99.90
45329;DHT22;72636;48.160;11.428;2024-03-07T15:07:52;8.40;99.90
45329;DHT22;72636;48.160;11.428;2024-03-07T15:10:23;8.40;99.90
45329;DHT22;72636;48.160;11.428;2024-03-07T15:12:52;8.30;99.90
45329;DHT22;72636;48.160;11.428;2024-03-07T15:15:19;8.30;99.90
45329;DHT22;72636;48.160;11.428;2024-03-07T15:17:48;8.20;99.90
45329;DHT22;72636;48.160;11.428;2024-03-07T15:20:14;8.20;99.90
45329;DHT22;72636;48.160;11.428;2024-03-07T15:22:53;8.10;99.90
45329;DHT22;72636;48.160;11.428;2024-03-07T15:25:20;8.10;99.90
45329;DHT22;72636;48.160;11.428;2024-03-07T15:27:48;8.10;99.90
45329;DHT22;72636;48.160;11.428;2024-03-07T15:30:19;8.10;99.90
45329;DHT22;72636;48.160;11.428;2024-03-07T15:32:46;8.10;99.90
45329;DHT22;72636;48.160;11.428;2024-03-07T15:35:13;8.10;99.90
45329;DHT22;72636;48.160;11.428;2024-03-07T15:37:49;8.00;99.90
45329;DHT22;72636;48.160;11.428;2024-03-07T15:40:16;8.00;99.90
45329;DHT22;72636;48.160;11.428;2024-03-07T15:42:46;8.00;99.90
45329;DHT22;72636;48.160;11.428;2024-03-07T15:45:18;8.00;99.90
45329;DHT22;72636;48.160;11.428;2024-03-07T15:47:48;8.00;99.90
45329;DHT22;72636;48.160;11.428;2024-03-07T15:50:15;8.00;99.90
45329;DHT22;72636;48.160;11.428;2024-03-07T15:52:45;8.00;99.90
45329;DHT22;72636;48.160;11.428;2024-03-07T15:55:11;7.90;99.90
45329;DHT22;72636;48.160;11.428;2024-03-07T15:57:51;7.90;99.90
45329;DHT22;72636;48.160;11.428;2024-03-07T16:00:26;7.80;99.90
45329;DHT22;72636;48.160;11.428;2024-03-07T16:02:53;7.80;99.90
45329;DHT22;72636;48.160;11.428;2024-03-07T16:05:21;7.80;99.90
45329;DHT22;72636;48.160;11.428;2024-03-07T16:07:49;7.80;99.90
45329;DHT22;72636;48.160;11.428;2024-03-07T16:10:16;7.80;99.90
45329;DHT22;72636;48.160;11.428;2024-03-07T16:12:41;7.70;99.90
45329;DHT22;72636;48.160;11.428;2024-03-07T16:15:08;7.70;99.90
45329;DHT22;72636;48.160;11.428;2024-03-07T16:17:37;7.70;99.90
45329;DHT22;72636;48.160;11.428;2024-03-07T16:20:03;7.60;99.90